createdAt,value
2022-12-31T00:00:09.355Z,101272.41
2022-12-31T00:01:34.428Z,101262.22
2022-12-31T00:02:38.740Z,101263.75
2022-12-31T00:03:41.859Z,101266.13
2022-12-31T00:04:44.433Z,101266.63
2022-12-31T00:05:46.914Z,101269.53
2022-12-31T00:06:49.564Z,101263.50
2022-12-31T00:07:52.230Z,101265.88
2022-12-31T00:08:57.216Z,101270.31
2022-12-31T00:09:59.575Z,101265.31
2022-12-31T00:11:02.073Z,101258.28
2022-12-31T00:12:04.696Z,101260.63
2022-12-31T00:13:11.322Z,101272.41
2022-12-31T00:14:14.371Z,101267.16
2022-12-31T00:15:17.099Z,101270.03
2022-12-31T00:16:25.111Z,101267.69
2022-12-31T00:17:29.313Z,101282.84
2022-12-31T00:18:31.624Z,101281.81
2022-12-31T00:19:34.197Z,101296.16
2022-12-31T00:20:41.156Z,101291.19
2022-12-31T00:21:43.847Z,101289.91
2022-12-31T00:22:46.260Z,101288.63
2022-12-31T00:23:49.374Z,101286.50
2022-12-31T00:24:51.905Z,101283.06
2022-12-31T00:25:54.264Z,101280.19
2022-12-31T00:26:57.404Z,101294.09
2022-12-31T00:27:59.843Z,101292.22
2022-12-31T00:29:02.717Z,101300.66
2022-12-31T00:30:05.463Z,101304.31
2022-12-31T00:31:11.419Z,101306.63
2022-12-31T00:32:14.325Z,101313.19
2022-12-31T00:33:16.797Z,101312.16
2022-12-31T00:34:19.173Z,101307.19
2022-12-31T00:35:21.667Z,101311.88
2022-12-31T00:36:26.337Z,101305.06
2022-12-31T00:37:28.937Z,101302.97
2022-12-31T00:38:33.163Z,101295.41
2022-12-31T00:39:35.648Z,101304.78
2022-12-31T00:40:38.083Z,101301.38
2022-12-31T00:41:40.646Z,101296.94
2022-12-31T00:42:43.075Z,101300.06
2022-12-31T00:43:46.610Z,101304.53
2022-12-31T00:44:49.024Z,101302.97
2022-12-31T00:45:51.580Z,101296.44
2022-12-31T00:46:54.211Z,101290.66
2022-12-31T00:47:56.636Z,101284.91
2022-12-31T00:48:59.121Z,101285.97
2022-12-31T00:50:01.674Z,101288.28
2022-12-31T00:51:06.536Z,101300.06
2022-12-31T00:52:09.116Z,101300.63
2022-12-31T00:53:11.658Z,101305.03
2022-12-31T00:54:17.428Z,101294.84
2022-12-31T00:55:19.941Z,101305.31
2022-12-31T00:56:27.312Z,101310.56
2022-12-31T00:57:29.847Z,101306.34
2022-12-31T00:58:33.489Z,101302.97
2022-12-31T00:59:36.047Z,101295.09
2022-12-31T01:00:38.963Z,101300.84
2022-12-31T01:01:43.232Z,101299.81
2022-12-31T01:02:46.166Z,101296.94
2022-12-31T01:03:51.408Z,101294.84
2022-12-31T01:04:54.110Z,101308.44
2022-12-31T01:05:59.565Z,101292.22
2022-12-31T01:07:03.079Z,101298.50
2022-12-31T01:08:06.507Z,101294.53
2022-12-31T01:09:10.456Z,101295.31
2022-12-31T01:10:12.949Z,101301.09
2022-12-31T01:11:19.261Z,101296.94
2022-12-31T01:12:22.230Z,101309.75
2022-12-31T01:13:24.644Z,101296.94
2022-12-31T01:14:27.345Z,101295.88
2022-12-31T01:15:35.136Z,101302.16
2022-12-31T01:16:41.891Z,101302.69
2022-12-31T01:17:46.395Z,101297.47
2022-12-31T01:18:50.048Z,101300.09
2022-12-31T01:19:52.596Z,101291.66
2022-12-31T01:20:55.172Z,101293.75
2022-12-31T01:21:58.421Z,101298.50
2022-12-31T01:23:00.945Z,101298.50
2022-12-31T01:24:03.872Z,101290.09
2022-12-31T01:25:06.942Z,101294.25
2022-12-31T01:26:11.577Z,101290.63
2022-12-31T01:27:14.081Z,101292.97
2022-12-31T01:28:16.732Z,101288.78
2022-12-31T01:29:19.444Z,101289.34
2022-12-31T01:30:24.479Z,101291.66
2022-12-31T01:31:27.681Z,101295.06
2022-12-31T01:32:30.088Z,101301.38
2022-12-31T01:33:32.892Z,101301.91
2022-12-31T01:34:35.430Z,101307.34
2022-12-31T01:35:38.349Z,101301.34
2022-12-31T01:36:40.764Z,101303.97
2022-12-31T01:37:43.306Z,101309.44
2022-12-31T01:38:45.744Z,101309.97
2022-12-31T01:39:48.373Z,101306.84
2022-12-31T01:40:50.964Z,101296.38
2022-12-31T01:41:53.466Z,101297.66
2022-12-31T01:42:57.137Z,101301.09
2022-12-31T01:44:02.328Z,101294.25
2022-12-31T01:45:11.155Z,101288.53
2022-12-31T01:46:21.092Z,101285.66
2022-12-31T01:47:38.214Z,101286.44
2022-12-31T01:48:40.662Z,101289.81
2022-12-31T01:49:47.621Z,101285.91
2022-12-31T01:50:50.811Z,101283.28
2022-12-31T01:52:11.488Z,101284.84
2022-12-31T01:53:15.627Z,101278.06
2022-12-31T01:54:20.625Z,101275.94
2022-12-31T01:55:37.008Z,101274.91
2022-12-31T01:56:40.905Z,101262.63
2022-12-31T01:57:45.785Z,101274.94
2022-12-31T01:58:51.213Z,101273.59
2022-12-31T01:59:55.809Z,101269.72
2022-12-31T02:00:59.589Z,101264.47
2022-12-31T02:02:02.829Z,101271.03
2022-12-31T02:03:08.475Z,101269.69
2022-12-31T02:04:15.102Z,101273.38
2022-12-31T02:05:30.999Z,101266.59
2022-12-31T02:06:46.168Z,101275.25
2022-12-31T02:07:49.056Z,101271.84
2022-12-31T02:08:51.967Z,101275.19
2022-12-31T02:09:54.645Z,101271.03
2022-12-31T02:10:59.514Z,101279.16
2022-12-31T02:12:02.129Z,101280.19
2022-12-31T02:13:04.963Z,101290.94
2022-12-31T02:14:12.387Z,101298.25
2022-12-31T02:15:15.252Z,101291.72
2022-12-31T02:16:47.443Z,101300.84
2022-12-31T02:18:14.324Z,101299.03
2022-12-31T02:19:42.067Z,101313.94
2022-12-31T02:20:55.391Z,101309.50
2022-12-31T02:22:14.124Z,101318.91
2022-12-31T02:23:19.088Z,101311.31
2022-12-31T02:24:56.901Z,101316.78
2022-12-31T02:26:02.440Z,101322.03
2022-12-31T02:27:27.093Z,101323.91
2022-12-31T02:29:03.178Z,101312.38
2022-12-31T02:30:11.183Z,101320.22
2022-12-31T02:31:37.457Z,101318.38
2022-12-31T02:32:47.281Z,101321.00
2022-12-31T02:34:04.081Z,101323.59
2022-12-31T02:35:15.702Z,101321.53
2022-12-31T02:36:25.144Z,101324.66
2022-12-31T02:37:30.646Z,101322.59
2022-12-31T02:38:42.228Z,101314.19
2022-12-31T02:39:45.070Z,101301.13
2022-12-31T02:40:48.545Z,101307.16
2022-12-31T02:41:52.298Z,101301.69
2022-12-31T02:42:55.717Z,101313.19
2022-12-31T02:43:58.339Z,101318.91
2022-12-31T02:45:00.879Z,101318.66
2022-12-31T02:46:16.331Z,101315.75
2022-12-31T02:47:31.034Z,101326.22
2022-12-31T02:48:53.769Z,101326.75
2022-12-31T02:49:56.464Z,101334.59
2022-12-31T02:51:40.341Z,101330.44
2022-12-31T02:53:01.404Z,101334.88
2022-12-31T02:54:39.368Z,101331.19
2022-12-31T02:56:03.368Z,101326.22
2022-12-31T02:57:17.956Z,101331.47
2022-12-31T02:58:49.980Z,101320.00
2022-12-31T03:00:17.358Z,101324.66
2022-12-31T03:01:45.362Z,101328.88
2022-12-31T03:02:49.307Z,101338.31
2022-12-31T03:04:11.910Z,101338.81
2022-12-31T03:05:17.354Z,101337.78
2022-12-31T03:06:19.917Z,101336.69
2022-12-31T03:07:28.263Z,101338.28
2022-12-31T03:08:31.136Z,101334.66
2022-12-31T03:09:34.540Z,101332.28
2022-12-31T03:10:37.394Z,101338.31
2022-12-31T03:11:58.907Z,101333.06
2022-12-31T03:13:01.658Z,101324.91
2022-12-31T03:14:04.151Z,101319.44
2022-12-31T03:15:20.144Z,101315.78
2022-12-31T03:16:23.066Z,101314.75
2022-12-31T03:17:26.425Z,101314.78
2022-12-31T03:18:57.527Z,101318.97
2022-12-31T03:20:18.974Z,101320.22
2022-12-31T03:21:39.745Z,101311.38
2022-12-31T03:22:43.434Z,101312.69
2022-12-31T03:23:50.330Z,101317.38
2022-12-31T03:25:11.056Z,101317.06
2022-12-31T03:26:13.905Z,101314.25
2022-12-31T03:27:17.131Z,101316.06
2022-12-31T03:28:22.300Z,101323.63
2022-12-31T03:29:24.765Z,101325.50
2022-12-31T03:30:28.379Z,101317.09
2022-12-31T03:31:30.765Z,101322.09
2022-12-31T03:32:33.331Z,101319.47
2022-12-31T03:33:38.322Z,101313.72
2022-12-31T03:34:40.855Z,101312.16
2022-12-31T03:35:45.875Z,101312.63
2022-12-31T03:36:48.366Z,101315.03
2022-12-31T03:37:52.056Z,101317.91
2022-12-31T03:38:55.443Z,101315.28
2022-12-31T03:39:58.287Z,101312.94
2022-12-31T03:41:00.841Z,101324.19
2022-12-31T03:42:03.435Z,101311.63
2022-12-31T03:43:05.876Z,101311.38
2022-12-31T03:44:08.355Z,101306.91
2022-12-31T03:45:11.922Z,101302.47
2022-12-31T03:46:14.507Z,101298.56
2022-12-31T03:47:17.526Z,101297.75
2022-12-31T03:48:22.207Z,101290.97
2022-12-31T03:49:24.860Z,101298.03
2022-12-31T03:50:27.627Z,101305.09
2022-12-31T03:51:29.973Z,101296.44
2022-12-31T03:52:32.762Z,101299.84
2022-12-31T03:53:35.986Z,101305.88
2022-12-31T03:54:41.068Z,101311.13
2022-12-31T03:55:43.527Z,101303.78
2022-12-31T03:56:48.888Z,101315.28
2022-12-31T03:57:52.651Z,101313.19
2022-12-31T03:58:54.933Z,101319.47
2022-12-31T03:59:57.738Z,101317.91
2022-12-31T04:01:00.715Z,101318.16
2022-12-31T04:02:03.621Z,101322.59
2022-12-31T04:03:06.382Z,101327.81
2022-12-31T04:04:08.900Z,101328.63
2022-12-31T04:05:12.588Z,101331.25
2022-12-31T04:06:16.690Z,101335.91
2022-12-31T04:07:21.755Z,101329.16
2022-12-31T04:08:24.633Z,101333.63
2022-12-31T04:09:27.259Z,101334.91
2022-12-31T04:10:29.715Z,101326.81
2022-12-31T04:11:32.493Z,101330.44
2022-12-31T04:12:36.330Z,101333.84
2022-12-31T04:13:38.798Z,101327.81
2022-12-31T04:14:41.387Z,101327.81
2022-12-31T04:15:43.887Z,101329.94
2022-12-31T04:16:46.628Z,101328.88
2022-12-31T04:17:49.611Z,101333.59
2022-12-31T04:18:52.006Z,101331.25
2022-12-31T04:19:54.557Z,101338.53
2022-12-31T04:21:04.826Z,101323.41
2022-12-31T04:22:07.243Z,101335.66
2022-12-31T04:23:09.860Z,101335.94
2022-12-31T04:24:12.326Z,101340.91
2022-12-31T04:25:14.952Z,101340.38
2022-12-31T04:26:17.595Z,101337.25
2022-12-31T04:27:20.020Z,101334.66
2022-12-31T04:28:22.586Z,101338.84
2022-12-31T04:29:25.246Z,101336.72
2022-12-31T04:30:27.807Z,101339.34
2022-12-31T04:31:30.497Z,101325.22
2022-12-31T04:32:33.013Z,101332.78
2022-12-31T04:33:35.437Z,101331.78
2022-12-31T04:34:38.134Z,101331.78
2022-12-31T04:35:40.596Z,101343.28
2022-12-31T04:36:43.120Z,101336.25
2022-12-31T04:37:46.131Z,101340.66
2022-12-31T04:38:48.745Z,101336.72
2022-12-31T04:39:51.228Z,101341.94
2022-12-31T04:41:12.527Z,101343.00
2022-12-31T04:42:15.004Z,101330.69
2022-12-31T04:43:17.533Z,101323.94
2022-12-31T04:44:20.812Z,101328.88
2022-12-31T04:45:23.440Z,101326.25
2022-12-31T04:46:28.938Z,101322.09
2022-12-31T04:47:31.463Z,101317.94
2022-12-31T04:48:34.590Z,101314.00
2022-12-31T04:49:37.184Z,101311.91
2022-12-31T04:50:39.597Z,101312.97
2022-12-31T04:51:42.278Z,101319.47
2022-12-31T04:52:44.695Z,101314.00
2022-12-31T04:53:47.629Z,101316.84
2022-12-31T04:54:50.201Z,101310.56
2022-12-31T04:55:53.090Z,101311.63
2022-12-31T04:56:55.712Z,101310.31
2022-12-31T04:57:58.352Z,101307.69
2022-12-31T04:59:00.918Z,101305.34
2022-12-31T05:00:04.108Z,101305.34
2022-12-31T05:01:07.687Z,101304.88
2022-12-31T05:02:10.411Z,101292.56
2022-12-31T05:03:13.223Z,101291.78
2022-12-31T05:04:19.147Z,101281.06
2022-12-31T05:05:22.178Z,101281.31
2022-12-31T05:06:24.731Z,101284.47
2022-12-31T05:07:27.442Z,101289.94
2022-12-31T05:08:30.346Z,101292.06
2022-12-31T05:09:32.911Z,101286.81
2022-12-31T05:10:37.263Z,101287.84
2022-12-31T05:11:39.879Z,101288.13
2022-12-31T05:12:42.310Z,101287.59
2022-12-31T05:13:44.983Z,101282.91
2022-12-31T05:14:47.468Z,101288.13
2022-12-31T05:15:50.756Z,101295.69
2022-12-31T05:16:53.316Z,101291.78
2022-12-31T05:17:56.374Z,101280.28
2022-12-31T05:18:59.143Z,101276.38
2022-12-31T05:20:01.659Z,101275.81
2022-12-31T05:21:04.619Z,101271.41
2022-12-31T05:22:25.416Z,101263.00
2022-12-31T05:23:28.274Z,101254.16
2022-12-31T05:24:30.701Z,101256.78
2022-12-31T05:25:33.390Z,101257.31
2022-12-31T05:26:35.989Z,101258.31
2022-12-31T05:27:38.611Z,101256.00
2022-12-31T05:28:41.285Z,101260.41
2022-12-31T05:29:43.709Z,101260.69
2022-12-31T05:30:50.412Z,101267.22
2022-12-31T05:31:53.121Z,101278.72
2022-12-31T05:32:55.531Z,101285.25
2022-12-31T05:33:58.116Z,101282.38
2022-12-31T05:35:01.085Z,101289.97
2022-12-31T05:36:03.896Z,101288.38
2022-12-31T05:37:06.499Z,101290.47
2022-12-31T05:38:09.091Z,101291.78
2022-12-31T05:39:11.492Z,101290.72
2022-12-31T05:40:13.928Z,101306.41
2022-12-31T05:41:16.371Z,101308.22
2022-12-31T05:42:18.925Z,101307.75
2022-12-31T05:43:21.350Z,101323.41
2022-12-31T05:44:23.914Z,101316.38
2022-12-31T05:45:30.791Z,101318.44
2022-12-31T05:46:33.788Z,101324.19
2022-12-31T05:47:36.406Z,101326.56
2022-12-31T05:48:40.259Z,101330.19
2022-12-31T05:49:42.959Z,101334.38
2022-12-31T05:50:45.329Z,101337.00
2022-12-31T05:51:47.901Z,101335.16
2022-12-31T05:52:50.602Z,101336.22
2022-12-31T05:53:53.043Z,101335.16
2022-12-31T05:54:55.455Z,101336.22
2022-12-31T05:55:58.349Z,101334.63
2022-12-31T05:57:01.475Z,101328.63
2022-12-31T05:58:04.097Z,101324.19
2022-12-31T05:59:06.661Z,101323.94
2022-12-31T06:00:11.107Z,101316.88
2022-12-31T06:01:16.583Z,101315.31
2022-12-31T06:02:19.525Z,101314.25
2022-12-31T06:03:22.283Z,101314.25
2022-12-31T06:04:26.052Z,101306.91
2022-12-31T06:05:31.278Z,101319.22
2022-12-31T06:06:33.814Z,101325.22
2022-12-31T06:07:36.540Z,101322.88
2022-12-31T06:08:40.549Z,101319.47
2022-12-31T06:09:43.079Z,101313.44
2022-12-31T06:10:45.607Z,101317.66
2022-12-31T06:11:48.365Z,101318.66
2022-12-31T06:12:50.864Z,101322.63
2022-12-31T06:13:53.500Z,101328.63
2022-12-31T06:14:56.068Z,101325.50
2022-12-31T06:15:58.604Z,101330.44
2022-12-31T06:17:01.582Z,101336.22
2022-12-31T06:18:04.073Z,101345.09
2022-12-31T06:19:06.854Z,101352.94
2022-12-31T06:20:13.084Z,101351.09
2022-12-31T06:21:16.054Z,101351.88
2022-12-31T06:22:18.753Z,101359.44
2022-12-31T06:23:21.212Z,101361.03
2022-12-31T06:24:23.585Z,101362.84
2022-12-31T06:25:26.448Z,101362.34
2022-12-31T06:26:29.048Z,101361.53
2022-12-31T06:27:31.657Z,101369.38
2022-12-31T06:28:34.078Z,101358.94
2022-12-31T06:29:36.515Z,101358.69
2022-12-31T06:30:38.998Z,101352.41
2022-12-31T06:31:41.443Z,101353.19
2022-12-31T06:32:43.853Z,101356.59
2022-12-31T06:33:48.902Z,101355.81
2022-12-31T06:34:51.270Z,101356.59
2022-12-31T06:36:00.365Z,101361.81
2022-12-31T06:37:03.079Z,101352.16
2022-12-31T06:38:05.898Z,101360.47
2022-12-31T06:39:08.282Z,101363.41
2022-12-31T06:40:11.647Z,101360.25
2022-12-31T06:41:15.979Z,101363.41
2022-12-31T06:42:18.356Z,101366.00
2022-12-31T06:43:21.277Z,101365.44
2022-12-31T06:44:23.890Z,101371.22
2022-12-31T06:45:26.242Z,101369.63
2022-12-31T06:46:29.018Z,101351.88
2022-12-31T06:47:31.757Z,101347.16
2022-12-31T06:48:35.572Z,101343.22
2022-12-31T06:49:37.982Z,101345.59
2022-12-31T06:50:41.172Z,101345.88
2022-12-31T06:51:46.325Z,101349.78
2022-12-31T06:52:48.713Z,101340.38
2022-12-31T06:53:52.456Z,101342.22
2022-12-31T06:54:55.052Z,101345.09
2022-12-31T06:55:57.919Z,101351.63
2022-12-31T06:57:00.467Z,101363.13
2022-12-31T06:58:02.977Z,101370.16
2022-12-31T06:59:06.336Z,101360.78
2022-12-31T07:00:11.014Z,101368.34
2022-12-31T07:01:41.616Z,101370.19
2022-12-31T07:03:04.112Z,101369.13
2022-12-31T07:04:37.820Z,101362.34
2022-12-31T07:05:52.716Z,101369.13
2022-12-31T07:06:59.629Z,101366.75
2022-12-31T07:08:09.009Z,101371.75
2022-12-31T07:09:23.681Z,101375.16
2022-12-31T07:11:04.643Z,101373.03
2022-12-31T07:12:26.150Z,101380.09
2022-12-31T07:13:43.844Z,101381.69
2022-12-31T07:15:04.443Z,101376.47
2022-12-31T07:16:31.224Z,101386.38
2022-12-31T07:17:52.398Z,101392.66
2022-12-31T07:19:19.376Z,101396.31
2022-12-31T07:20:22.203Z,101381.19
2022-12-31T07:21:35.219Z,101391.09
2022-12-31T07:22:39.011Z,101390.81
2022-12-31T07:23:42.947Z,101385.34
2022-12-31T07:24:45.712Z,101381.69
2022-12-31T07:25:59.963Z,101389.53
2022-12-31T07:27:15.012Z,101382.50
2022-12-31T07:28:36.809Z,101372.28
2022-12-31T07:29:59.911Z,101377.00
2022-12-31T07:31:16.451Z,101373.59
2022-12-31T07:32:30.775Z,101382.50
2022-12-31T07:33:52.067Z,101378.84
2022-12-31T07:35:17.394Z,101388.22
2022-12-31T07:36:38.291Z,101392.13
2022-12-31T07:37:54.391Z,101396.63
2022-12-31T07:39:10.900Z,101394.53
2022-12-31T07:40:34.945Z,101396.38
2022-12-31T07:41:49.843Z,101389.81
2022-12-31T07:43:28.154Z,101381.97
2022-12-31T07:44:36.638Z,101388.50
2022-12-31T07:46:20.922Z,101385.59
2022-12-31T07:47:26.257Z,101380.69
2022-12-31T07:48:30.152Z,101377.78
2022-12-31T07:49:34.510Z,101381.72
2022-12-31T07:50:38.012Z,101384.06
2022-12-31T07:51:41.567Z,101383.00
2022-12-31T07:52:45.526Z,101392.69
2022-12-31T07:53:48.196Z,101389.00
2022-12-31T07:54:51.112Z,101401.03
2022-12-31T07:56:21.649Z,101405.50
2022-12-31T07:58:07.623Z,101399.47
2022-12-31T07:59:30.981Z,101411.00
2022-12-31T08:00:34.263Z,101398.44
2022-12-31T08:01:39.422Z,101407.06
2022-12-31T08:03:08.987Z,101409.19
2022-12-31T08:04:34.554Z,101403.69
2022-12-31T08:05:49.088Z,101406.81
2022-12-31T08:07:13.007Z,101408.34
2022-12-31T08:08:36.269Z,101419.88
2022-12-31T08:09:58.372Z,101420.13
2022-12-31T08:11:14.203Z,101424.06
2022-12-31T08:12:19.612Z,101414.66
2022-12-31T08:13:25.671Z,101415.94
2022-12-31T08:14:29.695Z,101413.59
2022-12-31T08:15:32.492Z,101409.94
2022-12-31T08:16:35.205Z,101410.72
2022-12-31T08:17:37.919Z,101415.69
2022-12-31T08:18:41.094Z,101417.00
2022-12-31T08:19:44.325Z,101406.28
2022-12-31T08:21:04.782Z,101414.13
2022-12-31T08:22:32.366Z,101413.59
2022-12-31T08:23:53.597Z,101412.78
2022-12-31T08:25:23.130Z,101411.47
2022-12-31T08:26:52.601Z,101413.06
2022-12-31T08:28:01.720Z,101417.25
2022-12-31T08:29:22.099Z,101412.50
2022-12-31T08:30:37.151Z,101406.22
2022-12-31T08:32:21.288Z,101412.75
2022-12-31T08:33:35.729Z,101415.91
2022-12-31T08:34:57.199Z,101406.75
2022-12-31T08:36:19.515Z,101406.22
2022-12-31T08:37:31.945Z,101410.41
2022-12-31T08:39:00.667Z,101414.06
2022-12-31T08:40:37.696Z,101418.25
2022-12-31T08:41:46.301Z,101417.72
2022-12-31T08:43:07.637Z,101414.34
2022-12-31T08:44:28.747Z,101410.88
2022-12-31T08:45:42.562Z,101420.59
2022-12-31T08:47:00.077Z,101422.16
2022-12-31T08:48:08.494Z,101412.44
2022-12-31T08:49:11.401Z,101414.28
2022-12-31T08:50:16.465Z,101415.59
2022-12-31T08:51:25.068Z,101414.06
2022-12-31T08:52:27.803Z,101417.69
2022-12-31T08:53:30.967Z,101415.59
2022-12-31T08:54:33.941Z,101412.47
2022-12-31T08:55:37.910Z,101414.28
2022-12-31T08:57:05.690Z,101422.34
2022-12-31T08:58:15.738Z,101419.72
2022-12-31T08:59:36.396Z,101425.75
2022-12-31T09:00:39.814Z,101416.03
2022-12-31T09:02:08.304Z,101418.41
2022-12-31T09:03:35.129Z,101422.34
2022-12-31T09:04:52.929Z,101419.19
2022-12-31T09:06:03.527Z,101417.59
2022-12-31T09:07:09.689Z,101422.31
2022-12-31T09:08:43.991Z,101416.53
2022-12-31T09:09:52.857Z,101419.41
2022-12-31T09:11:23.761Z,101414.69
2022-12-31T09:12:47.543Z,101421.25
2022-12-31T09:14:15.391Z,101417.31
2022-12-31T09:15:34.091Z,101411.81
2022-12-31T09:16:42.282Z,101412.09
2022-12-31T09:17:49.319Z,101405.28
2022-12-31T09:18:55.165Z,101396.94
2022-12-31T09:20:02.092Z,101397.19
2022-12-31T09:21:15.192Z,101395.38
2022-12-31T09:22:18.891Z,101386.69
2022-12-31T09:23:30.172Z,101393.47
2022-12-31T09:24:35.837Z,101390.31
2022-12-31T09:25:56.014Z,101387.19
2022-12-31T09:27:06.343Z,101381.69
2022-12-31T09:28:18.636Z,101378.53
2022-12-31T09:29:42.573Z,101381.44
2022-12-31T09:30:59.121Z,101367.81
2022-12-31T09:32:10.716Z,101372.06
2022-12-31T09:33:17.277Z,101357.63
2022-12-31T09:34:52.203Z,101359.94
2022-12-31T09:35:58.845Z,101350.78
2022-12-31T09:37:07.266Z,101352.06
2022-12-31T09:38:45.448Z,101347.59
2022-12-31T09:39:48.681Z,101347.38
2022-12-31T09:41:17.095Z,101354.66
2022-12-31T09:42:50.525Z,101357.25
2022-12-31T09:44:22.058Z,101354.34
2022-12-31T09:45:51.911Z,101357.53
2022-12-31T09:47:10.198Z,101361.50
2022-12-31T09:48:50.304Z,101369.66
2022-12-31T09:50:32.686Z,101375.31
2022-12-31T09:52:04.222Z,101389.81
2022-12-31T09:53:19.321Z,101389.28
2022-12-31T09:54:27.673Z,101384.25
2022-12-31T09:55:35.782Z,101387.44
2022-12-31T09:56:42.717Z,101392.44
2022-12-31T09:58:13.130Z,101386.38
2022-12-31T09:59:39.669Z,101387.38
2022-12-31T10:00:59.830Z,101382.75
2022-12-31T10:02:39.686Z,101379.56
2022-12-31T10:04:34.956Z,101375.41
2022-12-31T10:06:06.009Z,101374.59
2022-12-31T10:07:48.726Z,101374.59
2022-12-31T10:09:45.381Z,101381.97
2022-12-31T10:10:55.039Z,101385.63
2022-12-31T10:12:19.221Z,101377.78
2022-12-31T10:13:44.965Z,101381.72
2022-12-31T10:15:35.577Z,101389.84
2022-12-31T10:17:01.735Z,101391.94
2022-12-31T10:18:23.988Z,101393.50
2022-12-31T10:19:55.688Z,101401.53
2022-12-31T10:21:33.124Z,101397.41
2022-12-31T10:23:07.878Z,101382.66
2022-12-31T10:24:52.082Z,101386.06
2022-12-31T10:26:20.905Z,101396.56
2022-12-31T10:27:39.701Z,101386.34
2022-12-31T10:29:31.715Z,101379.56
2022-12-31T10:32:44.226Z,101370.63
2022-12-31T10:34:04.036Z,101359.84
2022-12-31T10:35:37.206Z,101359.13
2022-12-31T10:37:13.866Z,101357.88
2022-12-31T10:38:22.254Z,101355.50
2022-12-31T10:39:37.950Z,101362.56
2022-12-31T10:41:16.842Z,101355.75
2022-12-31T10:42:28.616Z,101355.19
2022-12-31T10:44:11.324Z,101354.63
2022-12-31T10:45:33.284Z,101340.78
2022-12-31T10:47:00.800Z,101345.53
2022-12-31T10:48:51.376Z,101348.13
2022-12-31T10:50:23.835Z,101354.91
2022-12-31T10:51:48.206Z,101352.06
2022-12-31T10:53:09.861Z,101362.56
2022-12-31T10:54:32.289Z,101372.78
2022-12-31T10:55:59.671Z,101381.13
2022-12-31T10:57:20.864Z,101382.69
2022-12-31T10:59:06.414Z,101391.09
2022-12-31T11:00:12.924Z,101396.06
2022-12-31T11:01:26.280Z,101398.47
2022-12-31T11:02:41.178Z,101401.28
2022-12-31T11:04:19.214Z,101402.84
2022-12-31T11:05:49.139Z,101398.16
2022-12-31T11:06:57.064Z,101403.41
2022-12-31T11:08:38.227Z,101405.97
2022-12-31T11:10:00.997Z,101400.75
2022-12-31T11:11:13.176Z,101378.72
2022-12-31T11:12:32.135Z,101368.28
2022-12-31T11:13:55.127Z,101377.47
2022-12-31T11:15:18.730Z,101371.97
2022-12-31T11:16:32.899Z,101383.19
2022-12-31T11:17:51.856Z,101377.16
2022-12-31T11:19:25.109Z,101371.84
2022-12-31T11:20:50.784Z,101376.56
2022-12-31T11:22:08.819Z,101393.38
2022-12-31T11:23:45.314Z,101397.25
2022-12-31T11:25:03.819Z,101394.44
2022-12-31T11:26:32.379Z,101376.63
2022-12-31T11:27:55.411Z,101399.97
2022-12-31T11:29:17.051Z,101389.22
2022-12-31T11:30:29.757Z,101387.91
2022-12-31T11:31:42.545Z,101392.63
2022-12-31T11:32:56.974Z,101395.28
2022-12-31T11:34:28.053Z,101397.06
2022-12-31T11:36:19.251Z,101404.41
2022-12-31T11:37:43.207Z,101402.84
2022-12-31T11:38:59.124Z,101403.38
2022-12-31T11:40:32.980Z,101401.53
2022-12-31T11:41:42.982Z,101401.28
2022-12-31T11:43:01.812Z,101411.00
2022-12-31T11:44:32.659Z,101398.72
2022-12-31T11:46:12.932Z,101404.19
2022-12-31T11:48:04.352Z,101403.41
2022-12-31T11:49:24.943Z,101407.63
2022-12-31T11:50:35.951Z,101413.41
2022-12-31T11:52:21.775Z,101411.31
2022-12-31T11:53:35.071Z,101403.69
2022-12-31T11:55:05.867Z,101403.97
2022-12-31T11:56:25.007Z,101403.69
2022-12-31T11:57:35.735Z,101401.63
2022-12-31T11:58:46.735Z,101400.53
2022-12-31T11:59:54.796Z,101401.88
2022-12-31T12:01:08.237Z,101402.66
2022-12-31T12:02:30.118Z,101408.41
2022-12-31T12:03:33.399Z,101409.91
2022-12-31T12:04:36.177Z,101405.47
2022-12-31T12:05:40.149Z,101396.00
2022-12-31T12:06:45.816Z,101393.13
2022-12-31T12:07:50.479Z,101397.56
2022-12-31T12:09:01.582Z,101384.44
2022-12-31T12:10:17.013Z,101393.38
2022-12-31T12:11:26.753Z,101386.03
2022-12-31T12:12:45.823Z,101383.09
2022-12-31T12:13:49.013Z,101377.09
2022-12-31T12:14:55.328Z,101375.28
2022-12-31T12:16:00.479Z,101374.47
2022-12-31T12:17:08.818Z,101366.13
2022-12-31T12:18:41.128Z,101363.72
2022-12-31T12:19:54.009Z,101347.22
2022-12-31T12:21:23.391Z,101349.34
2022-12-31T12:22:29.183Z,101352.47
2022-12-31T12:23:33.173Z,101346.94
2022-12-31T12:24:35.937Z,101342.97
2022-12-31T12:25:41.115Z,101342.41
2022-12-31T12:26:47.189Z,101339.84
2022-12-31T12:27:52.330Z,101336.97
2022-12-31T12:28:56.952Z,101341.44
2022-12-31T12:30:19.028Z,101336.44
2022-12-31T12:31:24.259Z,101334.56
2022-12-31T12:32:27.479Z,101331.63
2022-12-31T12:33:42.056Z,101327.78
2022-12-31T12:34:49.563Z,101337.69
2022-12-31T12:35:53.124Z,101338.72
2022-12-31T12:36:55.989Z,101332.66
2022-12-31T12:38:00.653Z,101338.47
2022-12-31T12:39:05.773Z,101330.31
2022-12-31T12:40:20.642Z,101335.28
2022-12-31T12:41:26.657Z,101337.69
2022-12-31T12:42:30.308Z,101339.25
2022-12-31T12:43:36.019Z,101348.13
2022-12-31T12:44:40.345Z,101352.59
2022-12-31T12:45:52.224Z,101347.03
2022-12-31T12:46:56.370Z,101349.16
2022-12-31T12:48:07.983Z,101354.94
2022-12-31T12:49:25.835Z,101343.56
2022-12-31T12:50:46.490Z,101341.22
2022-12-31T12:52:02.021Z,101343.06
2022-12-31T12:53:37.431Z,101345.75
2022-12-31T12:55:04.784Z,101334.53
2022-12-31T12:56:25.511Z,101337.31
2022-12-31T12:57:42.761Z,101344.97
2022-12-31T12:59:35.550Z,101341.84
2022-12-31T13:01:03.224Z,101342.88
2022-12-31T13:02:59.158Z,101345.28
2022-12-31T13:04:33.571Z,101346.03
2022-12-31T13:05:46.073Z,101344.19
2022-12-31T13:07:12.618Z,101353.28
2022-12-31T13:08:42.755Z,101352.09
2022-12-31T13:09:54.594Z,101357.56
2022-12-31T13:11:16.150Z,101371.19
2022-12-31T13:12:56.821Z,101368.06
2022-12-31T13:14:30.121Z,101372.75
2022-12-31T13:16:04.762Z,101367.25
2022-12-31T13:17:29.167Z,101357.28
2022-12-31T13:18:44.338Z,101364.56
2022-12-31T13:20:42.620Z,101365.63
2022-12-31T13:22:20.667Z,101357.84
2022-12-31T13:23:50.198Z,101353.81
2022-12-31T13:25:07.325Z,101357.81
2022-12-31T13:26:52.638Z,101357.81
2022-12-31T13:28:08.463Z,101346.47
2022-12-31T13:29:27.299Z,101323.38
2022-12-31T13:30:43.101Z,101329.66
2022-12-31T13:31:47.560Z,101331.78
2022-12-31T13:33:21.028Z,101330.19
2022-12-31T13:35:57.127Z,101361.16
2022-12-31T13:37:10.592Z,101362.47
2022-12-31T13:38:24.529Z,101371.91